Time;durP1;ratioP1;P1;durP2;ratioP2;P2;SDS_P1;SDS_P2;PMS_P1;PMS_P2;Temp;Humidity;BMP_temperature;BMP_pressure;BME280_temperature;BME280_humidity;BME280_pressure;Samples;Min_cycle;Max_cycle;Signal;HPM_P1;HPM_P2
2022/11/19 00:01:04;;;;;;;2.20;1.30;;;10.50;99.90;;;;;;7390592;19;20225;-82
2022/11/19 00:03:32;;;;;;;2.17;1.57;;;10.60;99.90;;;;;;7390120;19;20382;-83
2022/11/19 00:06:05;;;;;;;4.20;1.20;;;10.60;99.90;;;;;;7389409;19;20671;-82
2022/11/19 00:08:31;;;;;;;1.93;1.30;;;10.60;99.90;;;;;;7387708;19;20154;-81
2022/11/19 00:11:06;;;;;;;2.03;1.30;;;10.20;99.90;;;;;;7388901;19;20146;-80
2022/11/19 00:13:32;;;;;;;1.73;1.20;;;10.30;99.90;;;;;;7395519;19;20134;-85
2022/11/19 00:16:17;;;;;;;2.87;1.77;;;10.40;99.90;;;;;;7392762;19;20161;-85
2022/11/19 00:18:42;;;;;;;2.93;1.60;;;10.50;99.90;;;;;;7390307;19;20154;-86
2022/11/19 00:21:11;;;;;;;2.20;1.40;;;10.50;99.90;;;;;;7392242;19;20145;-85
2022/11/19 00:23:37;;;;;;;1.80;1.27;;;10.50;99.90;;;;;;7391737;19;20593;-83
2022/11/19 00:26:12;;;;;;;2.57;1.50;;;10.50;99.90;;;;;;7391153;19;20158;-83
2022/11/19 00:28:38;;;;;;;1.50;1.33;;;10.50;99.90;;;;;;7388486;19;20585;-81
2022/11/19 00:31:10;;;;;;;1.97;1.40;;;10.50;99.90;;;;;;7392114;19;20652;-83
2022/11/19 00:33:37;;;;;;;2.40;1.33;;;10.50;99.90;;;;;;7391136;19;20513;-80
2022/11/19 00:36:06;;;;;;;3.43;1.60;;;10.50;99.90;;;;;;7391792;19;20158;-84
2022/11/19 00:38:31;;;;;;;2.70;1.27;;;10.50;99.90;;;;;;7390622;19;20597;-80
2022/11/19 00:40:57;;;;;;;2.03;1.30;;;10.40;99.90;;;;;;7396015;19;20161;-83
2022/11/19 00:46:08;;;;;;;2.53;1.73;;;10.30;99.90;;;;;;7395558;19;20138;-82
2022/11/19 00:48:37;;;;;;;1.83;1.13;;;10.50;99.90;;;;;;7395469;19;20621;-83
2022/11/19 00:51:03;;;;;;;3.30;1.30;;;10.50;99.90;;;;;;7398427;19;20612;-82
2022/11/19 00:53:29;;;;;;;2.20;1.30;;;10.60;99.90;;;;;;7390835;19;20239;-81
2022/11/19 00:55:54;;;;;;;2.30;1.33;;;10.60;99.90;;;;;;7389583;19;20149;-81
2022/11/19 00:58:20;;;;;;;2.27;1.30;;;10.60;99.90;;;;;;7386617;19;20158;-83
2022/11/19 01:00:46;;;;;;;1.53;1.17;;;10.50;99.90;;;;;;7389404;19;20608;-78
2022/11/19 01:03:12;;;;;;;3.70;1.40;;;10.50;99.90;;;;;;7389994;19;20139;-84
2022/11/19 01:05:38;;;;;;;1.77;1.07;;;10.40;99.90;;;;;;7388487;19;20145;-83
2022/11/19 01:08:04;;;;;;;1.90;1.40;;;10.50;99.90;;;;;;7388881;19;20138;-82
2022/11/19 01:10:29;;;;;;;2.00;1.33;;;10.40;99.90;;;;;;7389583;19;20607;-82
2022/11/19 01:15:39;;;;;;;2.50;1.07;;;10.50;99.90;;;;;;7389251;19;20707;-81
2022/11/19 01:18:05;;;;;;;1.90;1.07;;;10.50;99.90;;;;;;7388169;19;20143;-83
2022/11/19 01:20:31;;;;;;;3.63;1.17;;;10.50;99.90;;;;;;7390936;19;20146;-80
2022/11/19 01:22:58;;;;;;;4.10;1.00;;;10.40;99.90;;;;;;7389646;19;20155;-81
2022/11/19 01:25:24;;;;;;;1.20;0.90;;;10.50;99.90;;;;;;7387517;19;20175;-83
2022/11/19 01:27:50;;;;;;;1.73;1.10;;;10.50;99.90;;;;;;7384787;19;20143;-78
2022/11/19 01:30:16;;;;;;;3.20;1.10;;;10.40;99.90;;;;;;7388190;19;20142;-83
2022/11/19 01:32:42;;;;;;;1.70;1.00;;;10.40;99.90;;;;;;7387522;19;20142;-81
2022/11/19 01:35:08;;;;;;;2.07;0.90;;;10.50;99.90;;;;;;7389530;19;20473;-83
2022/11/19 01:37:33;;;;;;;1.30;1.00;;;10.40;99.90;;;;;;7386535;19;20264;-83
2022/11/19 01:39:59;;;;;;;2.60;1.40;;;10.60;99.90;;;;;;7388197;19;20179;-81
2022/11/19 01:42:48;;;;;;;1.40;0.90;;;10.50;99.90;;;;;;7388167;19;20163;-81
2022/11/19 01:45:34;;;;;;;2.33;1.30;;;10.50;99.90;;;;;;7390851;19;20150;-81
2022/11/19 01:48:09;;;;;;;1.80;1.23;;;10.50;99.90;;;;;;7382491;19;20592;-83
2022/11/19 01:50:40;;;;;;;2.40;1.27;;;10.50;99.90;;;;;;7387096;19;20149;-82
2022/11/19 01:53:08;;;;;;;1.30;1.00;;;10.40;99.90;;;;;;7388403;19;20643;-86
2022/11/19 01:55:35;;;;;;;1.40;1.03;;;10.30;99.90;;;;;;7389892;19;20162;-81
2022/11/19 01:58:02;;;;;;;2.40;0.90;;;10.30;99.90;;;;;;7386692;19;20620;-82
2022/11/19 02:00:28;;;;;;;1.80;0.93;;;10.40;99.90;;;;;;7383122;19;20500;-82
2022/11/19 02:02:54;;;;;;;2.20;0.93;;;10.40;99.90;;;;;;7387505;19;20134;-79
2022/11/19 02:05:20;;;;;;;1.57;1.10;;;10.40;99.90;;;;;;7386217;19;20142;-81
2022/11/19 02:07:56;;;;;;;0.90;0.80;;;10.40;99.90;;;;;;7385116;19;20523;-80
2022/11/19 02:10:34;;;;;;;1.10;0.97;;;10.40;99.90;;;;;;7381801;19;20153;-82
2022/11/19 02:13:11;;;;;;;0.80;0.80;;;10.30;99.90;;;;;;7386692;19;20138;-84
2022/11/19 02:15:50;;;;;;;2.37;0.83;;;10.20;99.90;;;;;;7385191;19;20157;-81
2022/11/19 02:18:30;;;;;;;1.37;0.90;;;10.20;99.90;;;;;;7386864;19;20155;-83
2022/11/19 02:21:30;;;;;;;2.27;1.00;;;10.30;99.90;;;;;;7385377;19;20149;-83
2022/11/19 02:24:23;;;;;;;0.87;0.80;;;10.40;99.90;;;;;;7382966;19;20159;-81
2022/11/19 02:27:26;;;;;;;2.27;0.80;;;10.40;99.90;;;;;;7384364;19;20970;-82
2022/11/19 02:30:01;;;;;;;2.17;1.00;;;10.40;99.90;;;;;;7385304;19;20201;-83
2022/11/19 02:32:33;;;;;;;3.33;0.80;;;10.40;99.90;;;;;;7384582;19;20149;-82
2022/11/19 02:35:23;;;;;;;0.63;0.63;;;10.30;99.90;;;;;;7385632;19;20158;-82
2022/11/19 02:37:59;;;;;;;1.07;0.83;;;10.30;99.90;;;;;;7382342;19;20171;-81
2022/11/19 02:40:35;;;;;;;1.67;0.77;;;10.40;99.90;;;;;;7384807;19;20172;-81
2022/11/19 02:43:07;;;;;;;1.27;0.80;;;10.40;99.90;;;;;;7384749;19;20145;-80
2022/11/19 02:45:44;;;;;;;1.17;1.07;;;10.30;99.90;;;;;;7387137;19;20498;-80
2022/11/19 02:48:16;;;;;;;2.33;1.00;;;10.40;99.90;;;;;;7384603;19;20138;-80
2022/11/19 02:50:50;;;;;;;3.20;0.90;;;10.40;99.90;;;;;;7383284;19;20154;-80
2022/11/19 02:53:16;;;;;;;1.33;0.90;;;10.10;99.90;;;;;;7384661;19;20145;-80
2022/11/19 02:56:09;;;;;;;1.23;1.00;;;10.10;99.90;;;;;;7385793;19;20135;-85
2022/11/19 03:06:45;;;;;;;3.10;1.17;;;10.30;99.90;;;;;;7382629;19;20590;-77
2022/11/19 03:09:11;;;;;;;1.93;0.93;;;10.40;99.90;;;;;;7385688;19;20143;-81
2022/11/19 03:11:39;;;;;;;1.60;0.80;;;10.40;99.90;;;;;;7384437;19;20139;-83
2022/11/19 03:17:15;;;;;;;1.37;0.90;;;10.40;99.90;;;;;;7386147;19;20483;-78
2022/11/19 03:20:00;;;;;;;2.03;1.10;;;10.40;99.90;;;;;;7385526;19;20170;-84
2022/11/19 03:22:57;;;;;;;1.33;0.93;;;10.40;99.90;;;;;;7390266;19;20143;-82
2022/11/19 03:25:37;;;;;;;2.90;1.10;;;10.40;99.90;;;;;;7388139;19;20146;-80
2022/11/19 03:28:08;;;;;;;3.33;1.10;;;10.40;99.90;;;;;;7391411;19;20126;-81
2022/11/19 03:30:36;;;;;;;1.20;0.90;;;10.40;99.90;;;;;;7393040;19;20135;-81
2022/11/19 03:33:10;;;;;;;2.07;0.90;;;10.40;99.90;;;;;;7393184;19;20142;-80
2022/11/19 03:35:42;;;;;;;2.03;1.60;;;10.40;99.90;;;;;;7394416;19;20134;-80
2022/11/19 03:38:25;;;;;;;1.00;0.93;;;10.40;99.90;;;;;;7391176;19;20142;-81
2022/11/19 03:40:54;;;;;;;1.67;0.90;;;10.40;99.90;;;;;;7395684;19;20141;-82
2022/11/19 03:43:25;;;;;;;2.33;1.10;;;10.20;99.90;;;;;;7390639;19;20162;-75
2022/11/19 03:45:53;;;;;;;1.57;1.00;;;10.20;99.90;;;;;;7390295;19;20150;-74
2022/11/19 03:48:20;;;;;;;1.40;1.00;;;10.30;99.90;;;;;;7384910;19;20236;-74
2022/11/19 03:51:03;;;;;;;1.37;1.10;;;10.40;99.90;;;;;;7391678;19;20156;-74
2022/11/19 03:53:28;;;;;;;2.37;0.90;;;10.40;99.90;;;;;;7392658;19;20156;-74
2022/11/19 03:56:00;;;;;;;0.80;0.80;;;10.40;99.90;;;;;;7391958;19;20151;-75
2022/11/19 03:58:26;;;;;;;0.90;0.80;;;10.40;99.90;;;;;;7384375;19;20161;-74
2022/11/19 04:00:52;;;;;;;2.27;1.10;;;10.40;99.90;;;;;;7390732;19;20154;-74
2022/11/19 04:03:18;;;;;;;0.67;0.60;;;10.40;99.90;;;;;;7391194;19;20505;-75
2022/11/19 04:05:44;;;;;;;3.87;1.07;;;10.40;99.90;;;;;;7388891;19;20134;-74
2022/11/19 04:08:10;;;;;;;0.90;0.70;;;10.40;99.90;;;;;;7390379;19;20227;-74
2022/11/19 04:10:35;;;;;;;2.07;0.90;;;10.50;99.90;;;;;;7389636;19;20139;-75
2022/11/19 04:13:01;;;;;;;2.17;1.00;;;10.40;99.90;;;;;;7389884;19;20503;-73
2022/11/19 04:15:27;;;;;;;1.00;0.73;;;10.30;99.90;;;;;;7388839;19;20150;-75
2022/11/19 04:17:53;;;;;;;1.87;0.70;;;10.30;99.90;;;;;;7389841;19;20226;-74
2022/11/19 04:20:18;;;;;;;1.50;0.80;;;10.40;99.90;;;;;;7390153;19;20171;-74
2022/11/19 04:22:44;;;;;;;1.13;0.90;;;10.40;99.90;;;;;;7388968;19;20134;-75
2022/11/19 04:25:10;;;;;;;0.60;0.60;;;10.40;99.90;;;;;;7391111;19;20139;-76
2022/11/19 04:27:36;;;;;;;0.77;0.60;;;10.40;99.90;;;;;;7388911;19;20147;-75
2022/11/19 04:30:02;;;;;;;1.97;0.97;;;10.50;99.90;;;;;;7389114;19;20146;-74
2022/11/19 04:32:27;;;;;;;2.27;0.80;;;10.50;99.90;;;;;;7387554;19;20608;-74
2022/11/19 04:34:53;;;;;;;2.10;0.70;;;10.50;99.90;;;;;;7388148;19;20146;-73
2022/11/19 04:37:19;;;;;;;0.80;0.70;;;10.40;99.90;;;;;;7387064;19;20139;-73
2022/11/19 04:39:45;;;;;;;3.33;0.90;;;10.40;99.90;;;;;;7387257;19;20275;-73
2022/11/19 04:42:11;;;;;;;1.17;0.90;;;10.40;99.90;;;;;;7389062;19;20698;-75
2022/11/19 04:44:36;;;;;;;1.43;0.80;;;10.40;99.90;;;;;;7389288;19;20165;-73
2022/11/19 04:47:02;;;;;;;1.90;0.90;;;10.50;99.90;;;;;;7386775;19;20161;-75
2022/11/19 04:49:28;;;;;;;1.30;0.90;;;10.50;99.90;;;;;;7387862;19;20221;-74
2022/11/19 04:51:54;;;;;;;1.13;0.80;;;10.50;99.90;;;;;;7388500;19;20218;-72
2022/11/19 04:54:19;;;;;;;1.80;1.17;;;10.30;99.90;;;;;;7389811;19;20146;-74
2022/11/19 04:56:45;;;;;;;1.23;0.80;;;10.40;99.90;;;;;;7387169;19;20186;-75
2022/11/19 04:59:11;;;;;;;1.77;1.10;;;10.30;99.90;;;;;;7387166;19;20167;-73
2022/11/19 05:01:36;;;;;;;1.00;0.90;;;10.40;99.90;;;;;;7386384;19;20660;-75
2022/11/19 05:04:02;;;;;;;1.37;0.93;;;10.40;99.90;;;;;;7387048;19;20620;-74
2022/11/19 05:06:28;;;;;;;1.33;1.13;;;10.30;99.90;;;;;;7387027;19;20225;-75
2022/11/19 05:08:54;;;;;;;0.80;0.80;;;10.20;99.90;;;;;;7385954;19;20147;-74
2022/11/19 05:11:19;;;;;;;1.00;0.90;;;10.30;99.90;;;;;;7388583;19;20138;-74
2022/11/19 05:13:45;;;;;;;1.10;0.90;;;10.20;99.90;;;;;;7386894;19;20162;-74
2022/11/19 05:16:11;;;;;;;1.77;0.90;;;10.30;99.90;;;;;;7387928;19;20155;-74
2022/11/19 05:18:38;;;;;;;1.97;1.00;;;10.30;99.90;;;;;;7386239;19;20623;-74
2022/11/19 05:21:04;;;;;;;1.10;0.80;;;10.40;99.90;;;;;;7387445;19;20389;-74
2022/11/19 05:23:29;;;;;;;1.00;0.83;;;10.30;99.90;;;;;;7388295;19;20745;-74
2022/11/19 05:25:55;;;;;;;1.07;0.90;;;10.20;99.90;;;;;;7387185;19;20145;-73
2022/11/19 05:28:21;;;;;;;3.00;1.23;;;10.40;99.90;;;;;;7385459;19;20530;-74
2022/11/19 05:30:47;;;;;;;1.00;0.80;;;10.30;99.90;;;;;;7387653;19;20146;-74
2022/11/19 05:33:12;;;;;;;1.00;0.90;;;10.20;99.90;;;;;;7388415;19;20614;-73
2022/11/19 05:35:38;;;;;;;1.20;0.80;;;10.20;99.90;;;;;;7387020;19;20469;-74
2022/11/19 05:38:04;;;;;;;1.13;1.03;;;10.10;99.90;;;;;;7385149;19;20166;-72
2022/11/19 05:40:30;;;;;;;2.90;1.17;;;10.30;99.90;;;;;;7387148;19;20154;-74
2022/11/19 05:42:55;;;;;;;2.80;1.10;;;10.30;99.90;;;;;;7386045;19;20213;-74
2022/11/19 05:45:21;;;;;;;2.23;1.17;;;10.40;99.90;;;;;;7384063;19;20138;-73
2022/11/19 05:47:52;;;;;;;0.87;0.87;;;10.40;99.90;;;;;;7386630;19;20142;-73
2022/11/19 05:50:17;;;;;;;1.40;1.07;;;10.40;99.90;;;;;;7386481;19;20154;-74
2022/11/19 05:52:43;;;;;;;1.20;1.10;;;10.40;99.90;;;;;;7384707;19;20502;-74
2022/11/19 05:55:09;;;;;;;1.37;1.27;;;10.30;99.90;;;;;;7387158;19;20222;-73
2022/11/19 05:57:35;;;;;;;1.67;1.10;;;10.40;99.90;;;;;;7384437;19;20538;-74
2022/11/19 06:00:01;;;;;;;1.53;1.20;;;10.40;99.90;;;;;;7385173;19;20162;-74
2022/11/19 06:02:27;;;;;;;2.30;1.20;;;10.40;99.90;;;;;;7384756;19;20150;-72
2022/11/19 06:04:53;;;;;;;1.10;1.00;;;10.40;99.90;;;;;;7384307;19;20139;-74
2022/11/19 06:07:18;;;;;;;2.17;1.27;;;10.30;99.90;;;;;;7383381;19;20146;-75
2022/11/19 06:09:44;;;;;;;1.13;1.00;;;10.30;99.90;;;;;;7388247;19;20615;-74
2022/11/19 06:12:10;;;;;;;1.30;1.20;;;10.40;99.90;;;;;;7384922;19;20153;-73
2022/11/19 06:14:36;;;;;;;1.00;0.73;;;10.40;99.90;;;;;;7385169;19;20162;-74
2022/11/19 06:17:01;;;;;;;1.37;1.10;;;10.40;99.90;;;;;;7385672;19;20155;-74
2022/11/19 06:19:27;;;;;;;1.07;0.97;;;10.30;99.90;;;;;;7382996;19;20139;-74
2022/11/19 06:21:53;;;;;;;1.10;1.00;;;10.40;99.90;;;;;;7385317;19;20126;-73
2022/11/19 06:24:19;;;;;;;2.63;1.23;;;10.30;99.90;;;;;;7385342;19;20139;-73
2022/11/19 06:26:45;;;;;;;1.10;0.93;;;10.30;99.90;;;;;;7386616;19;20630;-73
2022/11/19 06:29:15;;;;;;;1.13;1.00;;;10.40;99.90;;;;;;7383259;19;20139;-75
2022/11/19 06:31:41;;;;;;;1.17;0.80;;;10.40;99.90;;;;;;7385285;19;20154;-73
2022/11/19 06:34:07;;;;;;;2.90;1.10;;;10.50;99.90;;;;;;7384726;19;20516;-72
2022/11/19 06:36:33;;;;;;;2.93;1.30;;;10.30;99.90;;;;;;7385424;19;20646;-72
2022/11/19 06:38:58;;;;;;;1.67;1.00;;;10.60;99.90;;;;;;7383771;19;20521;-72
2022/11/19 06:41:24;;;;;;;1.73;1.00;;;10.40;99.90;;;;;;7384211;19;20179;-74
2022/11/19 06:43:50;;;;;;;1.00;0.80;;;10.60;99.90;;;;;;7384364;19;20154;-74
2022/11/19 06:46:16;;;;;;;1.03;0.80;;;10.40;99.90;;;;;;7383537;19;20150;-74
2022/11/19 06:48:42;;;;;;;1.10;0.93;;;10.40;99.90;;;;;;7382417;19;20726;-74
2022/11/19 06:51:08;;;;;;;1.00;0.90;;;10.40;99.90;;;;;;7386269;19;20161;-75
2022/11/19 06:53:33;;;;;;;1.47;1.00;;;10.20;99.90;;;;;;7385663;19;20142;-73
2022/11/19 06:56:01;;;;;;;1.23;1.00;;;10.20;99.90;;;;;;7383305;19;20155;-74
2022/11/19 06:58:28;;;;;;;1.30;0.90;;;10.10;99.90;;;;;;7382542;19;20182;-74
2022/11/19 07:00:54;;;;;;;1.00;0.80;;;10.10;99.90;;;;;;7383175;19;20150;-75
2022/11/19 07:03:21;;;;;;;1.70;0.97;;;10.10;99.90;;;;;;7385087;19;20499;-74
2022/11/19 07:05:47;;;;;;;1.20;1.00;;;10.20;99.90;;;;;;7383437;19;20135;-74
2022/11/19 07:08:13;;;;;;;1.10;1.00;;;10.00;99.90;;;;;;7380339;19;20150;-73
2022/11/19 07:10:39;;;;;;;1.83;1.00;;;10.10;99.90;;;;;;7385388;19;20155;-75
2022/11/19 07:13:05;;;;;;;1.40;0.90;;;10.20;99.90;;;;;;7384024;19;20605;-74
2022/11/19 07:15:30;;;;;;;1.80;0.80;;;10.10;99.90;;;;;;7384609;19;20151;-74
2022/11/19 07:17:56;;;;;;;1.33;1.00;;;10.30;99.90;;;;;;7384867;19;20143;-74
2022/11/19 07:20:22;;;;;;;1.90;1.00;;;10.30;99.90;;;;;;7384515;19;20620;-73
2022/11/19 07:22:47;;;;;;;2.03;1.10;;;10.40;99.90;;;;;;7384417;19;20134;-74
2022/11/19 07:25:13;;;;;;;1.10;1.00;;;10.40;99.90;;;;;;7384893;19;20165;-74
2022/11/19 07:27:42;;;;;;;2.10;1.20;;;10.40;99.90;;;;;;7383910;19;20163;-74
2022/11/19 07:30:08;;;;;;;1.43;1.00;;;10.40;99.90;;;;;;7381594;19;20476;-74
2022/11/19 07:32:34;;;;;;;1.40;1.30;;;10.40;99.90;;;;;;7381620;19;20127;-74
2022/11/19 07:35:00;;;;;;;2.10;1.20;;;10.40;99.90;;;;;;7382227;19;20134;-73
2022/11/19 07:37:25;;;;;;;2.23;1.17;;;10.30;99.90;;;;;;7380966;19;20650;-73
2022/11/19 07:39:51;;;;;;;2.00;1.07;;;10.40;99.90;;;;;;7383952;19;20141;-74
2022/11/19 07:45:02;;;;;;;1.77;1.20;;;10.30;99.90;;;;;;7381657;19;20142;-74
2022/11/19 07:47:28;;;;;;;1.63;0.97;;;10.40;99.90;;;;;;7380884;19;20145;-74
2022/11/19 07:49:54;;;;;;;4.40;1.47;;;10.20;99.90;;;;;;7381483;19;20160;-74
2022/11/19 07:52:20;;;;;;;1.13;1.00;;;10.20;99.90;;;;;;7380852;19;20156;-74
2022/11/19 07:54:46;;;;;;;1.37;0.97;;;10.30;99.90;;;;;;7381751;19;20139;-73
2022/11/19 07:57:12;;;;;;;1.37;1.07;;;10.30;99.90;;;;;;7382088;19;20597;-74
2022/11/19 07:59:41;;;;;;;3.73;1.10;;;10.40;99.90;;;;;;7381578;19;20162;-73
2022/11/19 08:02:10;;;;;;;2.10;1.00;;;10.40;99.90;;;;;;7383455;19;20139;-74
2022/11/19 08:04:36;;;;;;;2.23;1.40;;;10.30;99.90;;;;;;7388128;19;20209;-74
2022/11/19 08:07:01;;;;;;;1.60;1.00;;;10.40;99.90;;;;;;7389861;19;20151;-73
2022/11/19 08:09:27;;;;;;;1.50;0.80;;;10.50;99.90;;;;;;7392517;19;20246;-73
2022/11/19 08:11:53;;;;;;;1.67;1.40;;;10.40;99.90;;;;;;7395500;19;20242;-74
2022/11/19 08:14:21;;;;;;;1.00;0.90;;;10.50;99.90;;;;;;7394179;19;20135;-73
2022/11/19 08:19:31;;;;;;;5.30;3.27;;;10.50;99.90;;;;;;7395675;19;20213;-74
2022/11/19 08:21:57;;;;;;;3.67;2.70;;;10.50;99.90;;;;;;7393187;19;20143;-74
2022/11/19 08:24:22;;;;;;;1.60;1.50;;;10.50;99.90;;;;;;7395355;19;20139;-74
2022/11/19 08:26:49;;;;;;;2.57;1.33;;;10.60;99.90;;;;;;7394509;19;20745;-74
2022/11/19 08:29:16;;;;;;;2.30;1.50;;;10.70;99.90;;;;;;7398515;19;20139;-74
2022/11/19 08:31:44;;;;;;;1.87;1.27;;;10.70;99.90;;;;;;7394922;19;20134;-74
2022/11/19 08:34:11;;;;;;;1.27;0.97;;;10.80;99.90;;;;;;7388984;19;20677;-75
2022/11/19 08:36:37;;;;;;;1.53;1.00;;;11.00;99.90;;;;;;7387932;19;20147;-74
2022/11/19 08:39:03;;;;;;;3.20;1.20;;;10.80;99.90;;;;;;7387805;19;20139;-74
2022/11/19 08:44:14;;;;;;;1.37;1.03;;;10.90;99.90;;;;;;7391291;19;20174;-75
2022/11/19 08:46:40;;;;;;;3.37;1.23;;;10.80;99.90;;;;;;7388510;19;20594;-74
2022/11/19 08:49:06;;;;;;;1.60;0.93;;;10.80;99.90;;;;;;7385778;19;20170;-74
2022/11/19 08:51:32;;;;;;;1.50;1.10;;;10.80;99.90;;;;;;7389161;19;20198;-72
2022/11/19 08:53:57;;;;;;;2.20;1.20;;;10.80;99.90;;;;;;7390711;19;20154;-74
2022/11/19 08:56:23;;;;;;;2.83;1.00;;;10.80;99.90;;;;;;7386362;19;20138;-72
2022/11/19 08:58:52;;;;;;;2.00;0.90;;;10.90;99.90;;;;;;7384236;19;20149;-73
2022/11/19 09:01:18;;;;;;;1.27;0.90;;;11.00;99.90;;;;;;7386474;19;20153;-74
2022/11/19 09:03:44;;;;;;;2.30;1.33;;;10.90;99.90;;;;;;7384851;19;20154;-73
2022/11/19 09:06:10;;;;;;;3.83;1.20;;;10.80;99.90;;;;;;7386453;19;20149;-73
2022/11/19 09:08:36;;;;;;;1.10;0.87;;;10.90;99.90;;;;;;7383514;19;20547;-74
2022/11/19 09:11:12;;;;;;;0.97;0.87;;;11.00;99.90;;;;;;7386722;19;20131;-72
2022/11/19 09:13:38;;;;;;;1.40;1.00;;;11.00;99.90;;;;;;7387488;19;20138;-73
2022/11/19 09:16:04;;;;;;;3.23;1.17;;;11.00;99.90;;;;;;7386857;19;20626;-73
2022/11/19 09:18:31;;;;;;;1.17;1.00;;;11.00;99.90;;;;;;7383754;19;20135;-72
2022/11/19 09:20:59;;;;;;;1.53;0.93;;;11.10;99.90;;;;;;7385393;19;20179;-83
2022/11/19 09:23:26;;;;;;;1.10;0.90;;;11.10;99.90;;;;;;7387572;19;20139;-72
2022/11/19 09:25:59;;;;;;;1.30;0.90;;;11.10;99.90;;;;;;7385459;19;20154;-73
2022/11/19 09:28:26;;;;;;;1.60;0.90;;;11.20;99.90;;;;;;7384184;19;20127;-73
2022/11/19 09:31:01;;;;;;;2.30;1.00;;;11.30;99.90;;;;;;7386329;19;20264;-76
2022/11/19 09:33:29;;;;;;;1.17;0.97;;;11.10;99.90;;;;;;7388182;19;20138;-74
2022/11/19 09:35:55;;;;;;;1.10;0.97;;;11.00;99.90;;;;;;7388769;19;20764;-73
2022/11/19 09:38:21;;;;;;;2.87;0.90;;;11.10;99.90;;;;;;7386907;19;20135;-73
2022/11/19 09:40:51;;;;;;;1.77;1.00;;;11.40;99.90;;;;;;7388112;19;20659;-72
2022/11/19 09:43:41;;;;;;;1.30;0.90;;;11.20;99.90;;;;;;7384674;19;20142;-72
2022/11/19 09:46:16;;;;;;;2.17;0.93;;;11.10;99.90;;;;;;7385893;19;20503;-73
2022/11/19 09:48:42;;;;;;;0.87;0.70;;;11.10;99.90;;;;;;7385908;19;20782;-75
2022/11/19 09:51:17;;;;;;;0.90;0.70;;;11.20;99.90;;;;;;7386891;19;20697;-73
2022/11/19 09:54:03;;;;;;;0.80;0.70;;;11.20;99.90;;;;;;7384950;19;20467;-73
2022/11/19 09:56:37;;;;;;;1.00;0.73;;;11.20;99.90;;;;;;7388515;19;20214;-73
2022/11/19 09:59:12;;;;;;;1.13;0.87;;;11.10;99.90;;;;;;7385773;19;20206;-74
2022/11/19 10:01:38;;;;;;;1.50;0.90;;;11.00;99.90;;;;;;7385915;19;20580;-72
2022/11/19 10:04:05;;;;;;;1.50;0.80;;;10.90;99.90;;;;;;7386574;19;20135;-73
2022/11/19 10:06:38;;;;;;;1.73;1.23;;;11.00;99.90;;;;;;7385431;19;20162;-74
2022/11/19 10:09:18;;;;;;;2.70;0.97;;;11.00;99.90;;;;;;7380041;19;20135;-73
2022/11/19 10:12:06;;;;;;;0.60;0.60;;;10.80;99.90;;;;;;7388841;19;20145;-74
2022/11/19 10:14:49;;;;;;;0.63;0.63;;;11.00;99.90;;;;;;7385511;19;20138;-74
2022/11/19 10:17:39;;;;;;;1.33;0.90;;;11.10;99.90;;;;;;7383246;19;20206;-72
2022/11/19 10:20:24;;;;;;;3.17;0.90;;;11.20;99.90;;;;;;7385437;19;20603;-72
2022/11/19 10:23:17;;;;;;;5.70;3.03;;;11.20;99.90;;;;;;7382271;19;20171;-73
2022/11/19 10:25:49;;;;;;;3.67;1.43;;;10.80;99.90;;;;;;7381329;19;20156;-80
2022/11/19 10:28:34;;;;;;;2.67;1.00;;;10.90;99.90;;;;;;7382450;19;20585;-78
2022/11/19 10:31:07;;;;;;;0.90;0.80;;;11.00;99.90;;;;;;7384593;19;20138;-79
2022/11/19 10:33:43;;;;;;;0.70;0.70;;;11.20;99.90;;;;;;7382976;19;20134;-75
2022/11/19 10:36:33;;;;;;;2.20;0.90;;;11.20;99.90;;;;;;7379549;19;20521;-79
2022/11/19 10:39:06;;;;;;;1.63;1.07;;;11.30;99.90;;;;;;7379934;19;20135;-80
2022/11/19 10:41:44;;;;;;;1.90;0.97;;;11.40;99.90;;;;;;7382480;19;20163;-77
2022/11/19 10:44:41;;;;;;;0.77;0.70;;;11.40;99.90;;;;;;7380916;19;20507;-79
2022/11/19 10:47:15;;;;;;;1.93;0.90;;;11.40;99.90;;;;;;7382990;19;20138;-76
2022/11/19 10:49:42;;;;;;;1.80;1.00;;;11.10;99.90;;;;;;7382748;19;20126;-78
2022/11/19 10:52:33;;;;;;;2.53;0.77;;;11.00;99.90;;;;;;7384696;19;20255;-79
2022/11/19 10:55:03;;;;;;;1.37;1.00;;;11.10;99.90;;;;;;7383423;19;21354;-77
2022/11/19 10:57:31;;;;;;;2.40;0.90;;;11.00;99.90;;;;;;7381523;19;20193;-77
2022/11/19 10:59:58;;;;;;;1.00;0.90;;;11.20;99.90;;;;;;7383271;19;20249;-78
2022/11/19 11:02:50;;;;;;;1.53;0.70;;;11.00;99.90;;;;;;7381817;19;20479;-79
2022/11/19 11:05:17;;;;;;;1.27;0.70;;;10.80;99.90;;;;;;7381638;19;20625;-78
2022/11/19 11:08:07;;;;;;;1.57;1.00;;;11.00;99.90;;;;;;7379410;19;20198;-82
2022/11/19 11:10:44;;;;;;;1.30;0.90;;;11.20;99.90;;;;;;7381816;19;20202;-79
2022/11/19 11:16:13;;;;;;;9.83;5.23;;;11.20;99.90;;;;;;7381883;19;20179;-80
2022/11/19 11:18:40;;;;;;;3.53;1.03;;;11.10;99.90;;;;;;7382826;19;20748;-86
2022/11/19 11:21:12;;;;;;;1.63;1.20;;;11.20;99.90;;;;;;7383664;19;20159;-82
2022/11/19 11:23:54;;;;;;;2.77;1.53;;;11.10;99.90;;;;;;7382190;19;20135;-82
2022/11/19 11:26:28;;;;;;;1.43;1.13;;;11.10;99.90;;;;;;7383393;19;20505;-82
2022/11/19 11:29:00;;;;;;;2.30;0.80;;;11.10;99.90;;;;;;7381942;19;20598;-79
2022/11/19 11:31:35;;;;;;;1.10;0.80;;;11.20;99.90;;;;;;7381470;19;20130;-78
2022/11/19 11:34:02;;;;;;;1.10;0.80;;;11.20;99.90;;;;;;7382891;19;20551;-82
2022/11/19 11:36:31;;;;;;;1.53;0.90;;;11.20;99.90;;;;;;7382115;19;20139;-82
2022/11/19 11:39:00;;;;;;;2.50;0.70;;;11.30;99.90;;;;;;7378757;19;20155;-80
2022/11/19 11:41:32;;;;;;;2.10;0.93;;;11.30;99.90;;;;;;7382231;19;20285;-84
2022/11/19 11:44:03;;;;;;;2.57;0.90;;;11.40;99.90;;;;;;7383884;19;20471;-81
2022/11/19 11:46:48;;;;;;;1.17;0.80;;;11.20;99.90;;;;;;7388624;19;20160;-81
2022/11/19 11:49:36;;;;;;;4.10;1.83;;;11.20;99.90;;;;;;7387534;19;20143;-83
2022/11/19 11:52:08;;;;;;;1.97;0.83;;;11.00;99.90;;;;;;7389603;19;20130;-83
2022/11/19 11:54:35;;;;;;;2.07;0.80;;;10.90;99.90;;;;;;7390199;19;20632;-84
2022/11/19 11:57:32;;;;;;;0.97;0.80;;;11.10;99.90;;;;;;7389133;19;20502;-80
2022/11/19 11:59:59;;;;;;;2.47;0.90;;;10.90;99.90;;;;;;7385861;19;20150;-83
2022/11/19 12:02:32;;;;;;;0.67;0.67;;;11.10;99.90;;;;;;7389134;19;20126;-83
2022/11/19 12:05:03;;;;;;;3.53;0.80;;;11.20;99.90;;;;;;7387534;19;20138;-83
2022/11/19 12:07:44;;;;;;;1.93;0.80;;;11.30;99.90;;;;;;7386731;19;20600;-80
2022/11/19 12:10:48;;;;;;;0.93;0.63;;;11.20;99.90;;;;;;7384277;19;20154;-79
2022/11/19 12:13:53;;;;;;;2.70;1.00;;;11.30;99.90;;;;;;7386797;19;20146;-81
2022/11/19 12:16:30;;;;;;;1.27;0.97;;;11.40;99.90;;;;;;7387951;19;20130;-78
2022/11/19 12:19:11;;;;;;;0.97;0.73;;;11.40;99.90;;;;;;7384553;19;20130;-77
2022/11/19 12:21:46;;;;;;;1.17;0.90;;;11.50;99.90;;;;;;7386200;19;20553;-76
2022/11/19 12:24:32;;;;;;;1.50;1.00;;;11.40;99.90;;;;;;7388241;19;20174;-77
2022/11/19 12:27:09;;;;;;;1.17;0.90;;;11.40;99.90;;;;;;7385412;19;20154;-76
2022/11/19 12:29:53;;;;;;;1.23;0.70;;;11.30;99.90;;;;;;7383472;19;20230;-77
2022/11/19 12:32:53;;;;;;;0.93;0.73;;;11.20;99.90;;;;;;7387131;19;20142;-76
2022/11/19 12:35:37;;;;;;;2.30;1.07;;;11.10;99.90;;;;;;7386869;19;20161;-77
2022/11/19 12:38:33;;;;;;;1.30;1.13;;;11.10;99.90;;;;;;7391616;19;20138;-79
2022/11/19 12:41:21;;;;;;;2.00;1.00;;;11.10;99.90;;;;;;7388915;19;20142;-78
2022/11/19 12:43:58;;;;;;;2.83;1.23;;;11.10;99.90;;;;;;7388783;19;20131;-80
2022/11/19 12:46:36;;;;;;;5.07;2.90;;;11.20;99.90;;;;;;7388534;19;20159;-80
2022/11/19 12:49:34;;;;;;;2.30;1.43;;;11.20;99.90;;;;;;7384018;19;20187;-80
2022/11/19 12:52:11;;;;;;;1.37;1.07;;;11.10;99.90;;;;;;7386283;19;20159;-81
2022/11/19 12:55:00;;;;;;;1.60;1.10;;;11.00;99.90;;;;;;7384158;19;20150;-78
2022/11/19 12:57:29;;;;;;;1.80;1.10;;;11.00;99.90;;;;;;7388913;19;20191;-78
2022/11/19 13:00:07;;;;;;;1.13;0.80;;;11.20;99.90;;;;;;7391449;19;20153;-80
2022/11/19 13:02:53;;;;;;;1.00;0.83;;;11.10;99.90;;;;;;7390742;19;20611;-82
2022/11/19 13:05:30;;;;;;;0.93;0.73;;;11.00;99.90;;;;;;7385791;19;20566;-80
2022/11/19 13:08:07;;;;;;;1.33;0.90;;;11.00;99.90;;;;;;7386855;19;20138;-83
2022/11/19 13:10:38;;;;;;;1.30;0.90;;;11.00;99.90;;;;;;7385428;19;20618;-81
2022/11/19 13:13:07;;;;;;;3.67;1.07;;;11.20;99.90;;;;;;7386870;19;20540;-80
2022/11/19 13:15:38;;;;;;;1.63;0.70;;;11.10;99.90;;;;;;7387176;19;20499;-79
2022/11/19 13:18:11;;;;;;;3.13;1.00;;;10.90;99.90;;;;;;7385825;19;20139;-81
2022/11/19 13:20:58;;;;;;;2.67;1.10;;;11.00;99.90;;;;;;7384983;19;20218;-78
2022/11/19 13:23:30;;;;;;;0.93;0.90;;;11.00;99.90;;;;;;7386855;19;20134;-80
2022/11/19 13:26:03;;;;;;;2.13;1.10;;;11.10;99.90;;;;;;7386057;19;20723;-81
2022/11/19 13:28:54;;;;;;;1.20;1.10;;;11.30;99.90;;;;;;7385613;19;20203;-80
2022/11/19 13:31:34;;;;;;;2.93;0.90;;;11.10;99.90;;;;;;7388223;19;20147;-82
2022/11/19 13:34:11;;;;;;;0.93;0.70;;;11.00;99.90;;;;;;7389793;19;20226;-81
2022/11/19 13:36:45;;;;;;;7.40;1.27;;;11.20;99.90;;;;;;7389293;19;20134;-79